sensor_id;sensor_type;location;lat;lon;timestamp;pressure;altitude;pressure_sealevel;temperature;humidity
6680;BME280;3376;42.664;23.346;2022-07-10T00:00:13;94419.63;;;16.80;100.00
6680;BME280;3376;42.664;23.346;2022-07-10T00:02:43;94470.09;;;17.05;100.00
6680;BME280;3376;42.664;23.346;2022-07-10T00:05:10;94469.50;;;17.03;100.00
6680;BME280;3376;42.664;23.346;2022-07-10T00:07:37;94469.94;;;17.00;100.00
6680;BME280;3376;42.664;23.346;2022-07-10T00:10:06;94465.94;;;16.97;100.00
6680;BME280;3376;42.664;23.346;2022-07-10T00:12:33;94466.31;;;17.01;100.00
6680;BME280;3376;42.664;23.346;2022-07-10T00:15:00;94461.38;;;17.11;100.00
6680;BME280;3376;42.664;23.346;2022-07-10T00:17:27;94416.06;;;16.74;100.00
6680;BME280;3376;42.664;23.346;2022-07-10T00:19:54;94456.06;;;16.99;100.00
6680;BME280;3376;42.664;23.346;2022-07-10T00:22:21;94460.84;;;17.02;100.00
6680;BME280;3376;42.664;23.346;2022-07-10T00:24:48;94455.47;;;16.97;100.00
6680;BME280;3376;42.664;23.346;2022-07-10T00:27:17;94439.47;;;16.87;100.00
6680;BME280;3376;42.664;23.346;2022-07-10T00:29:44;94447.22;;;17.00;100.00
6680;BME280;3376;42.664;23.346;2022-07-10T00:32:11;94452.06;;;16.97;100.00
6680;BME280;3376;42.664;23.346;2022-07-10T00:34:38;94440.91;;;16.83;100.00
6680;BME280;3376;42.664;23.346;2022-07-10T00:37:05;94448.94;;;16.88;100.00
6680;BME280;3376;42.664;23.346;2022-07-10T00:39:32;94451.19;;;16.85;100.00
6680;BME280;3376;42.664;23.346;2022-07-10T00:42:06;94416.97;;;16.62;100.00
6680;BME280;3376;42.664;23.346;2022-07-10T00:44:34;94407.78;;;16.53;100.00
6680;BME280;3376;42.664;23.346;2022-07-10T00:47:02;94444.06;;;16.67;100.00
6680;BME280;3376;42.664;23.346;2022-07-10T00:49:29;94435.25;;;16.62;100.00
6680;BME280;3376;42.664;23.346;2022-07-10T00:51:58;94425.88;;;16.54;100.00
6680;BME280;3376;42.664;23.346;2022-07-10T00:54:26;94274.56;;;15.66;100.00
6680;BME280;3376;42.664;23.346;2022-07-10T00:56:54;94438.84;;;16.67;100.00
6680;BME280;3376;42.664;23.346;2022-07-10T00:59:21;94438.41;;;16.70;100.00
6680;BME280;3376;42.664;23.346;2022-07-10T01:01:50;94421.50;;;16.73;100.00
6680;BME280;3376;42.664;23.346;2022-07-10T01:04:17;94429.91;;;16.75;100.00
6680;BME280;3376;42.664;23.346;2022-07-10T01:06:44;94420.16;;;16.64;100.00
6680;BME280;3376;42.664;23.346;2022-07-10T01:09:11;94426.22;;;16.64;100.00
6680;BME280;3376;42.664;23.346;2022-07-10T01:11:38;94417.19;;;16.60;100.00
6680;BME280;3376;42.664;23.346;2022-07-10T01:14:06;94415.38;;;16.61;100.00
6680;BME280;3376;42.664;23.346;2022-07-10T01:16:33;94422.56;;;16.65;100.00
6680;BME280;3376;42.664;23.346;2022-07-10T01:19:02;94413.53;;;16.61;100.00
6680;BME280;3376;42.664;23.346;2022-07-10T01:21:32;94432.00;;;16.66;100.00
6680;BME280;3376;42.664;23.346;2022-07-10T01:24:02;94405.16;;;16.53;100.00
6680;BME280;3376;42.664;23.346;2022-07-10T01:26:29;94426.94;;;16.71;100.00
6680;BME280;3376;42.664;23.346;2022-07-10T01:28:58;94423.59;;;16.64;100.00
6680;BME280;3376;42.664;23.346;2022-07-10T01:31:27;94384.69;;;16.43;100.00
6680;BME280;3376;42.664;23.346;2022-07-10T01:33:55;94419.25;;;16.76;100.00
6680;BME280;3376;42.664;23.346;2022-07-10T01:36:22;94418.66;;;16.74;100.00
6680;BME280;3376;42.664;23.346;2022-07-10T01:38:52;94338.59;;;16.24;100.00
6680;BME280;3376;42.664;23.346;2022-07-10T01:41:20;94253.16;;;15.82;100.00
6680;BME280;3376;42.664;23.346;2022-07-10T01:43:47;94409.34;;;16.78;100.00
6680;BME280;3376;42.664;23.346;2022-07-10T01:46:14;94393.72;;;16.72;100.00
6680;BME280;3376;42.664;23.346;2022-07-10T01:48:42;94403.41;;;16.71;100.00
6680;BME280;3376;42.664;23.346;2022-07-10T01:51:10;94395.66;;;16.58;100.00
6680;BME280;3376;42.664;23.346;2022-07-10T01:53:38;94365.81;;;16.41;100.00
6680;BME280;3376;42.664;23.346;2022-07-10T01:56:08;94393.63;;;16.60;100.00
6680;BME280;3376;42.664;23.346;2022-07-10T01:58:36;94400.59;;;16.66;100.00
6680;BME280;3376;42.664;23.346;2022-07-10T02:01:03;94343.34;;;16.33;100.00
6680;BME280;3376;42.664;23.346;2022-07-10T02:03:31;94386.06;;;16.52;100.00
6680;BME280;3376;42.664;23.346;2022-07-10T02:06:15;94386.38;;;16.62;100.00
6680;BME280;3376;42.664;23.346;2022-07-10T02:08:42;94363.56;;;16.44;100.00
6680;BME280;3376;42.664;23.346;2022-07-10T02:11:11;94387.28;;;16.50;100.00
6680;BME280;3376;42.664;23.346;2022-07-10T02:13:38;94390.28;;;16.53;100.00
6680;BME280;3376;42.664;23.346;2022-07-10T02:16:05;94391.69;;;16.56;100.00
6680;BME280;3376;42.664;23.346;2022-07-10T02:18:32;94390.66;;;16.57;100.00
6680;BME280;3376;42.664;23.346;2022-07-10T02:20:59;94220.06;;;15.51;100.00
6680;BME280;3376;42.664;23.346;2022-07-10T02:23:26;94393.47;;;16.55;100.00
6680;BME280;3376;42.664;23.346;2022-07-10T02:25:53;94384.81;;;16.55;100.00
6680;BME280;3376;42.664;23.346;2022-07-10T02:28:21;94383.69;;;16.51;100.00
6680;BME280;3376;42.664;23.346;2022-07-10T02:30:48;94390.53;;;16.45;100.00
6680;BME280;3376;42.664;23.346;2022-07-10T02:33:15;94375.38;;;16.29;100.00
6680;BME280;3376;42.664;23.346;2022-07-10T02:35:42;94385.13;;;16.40;100.00
6680;BME280;3376;42.664;23.346;2022-07-10T02:38:09;94387.75;;;16.40;100.00
6680;BME280;3376;42.664;23.346;2022-07-10T02:40:36;94390.78;;;16.37;100.00
6680;BME280;3376;42.664;23.346;2022-07-10T02:43:02;94388.75;;;16.39;100.00
6680;BME280;3376;42.664;23.346;2022-07-10T02:45:31;94396.59;;;16.39;100.00
6680;BME280;3376;42.664;23.346;2022-07-10T02:47:57;94387.22;;;16.31;100.00
6680;BME280;3376;42.664;23.346;2022-07-10T02:50:24;94377.22;;;16.22;100.00
6680;BME280;3376;42.664;23.346;2022-07-10T02:52:51;94403.22;;;16.41;100.00
6680;BME280;3376;42.664;23.346;2022-07-10T02:55:18;94402.19;;;16.42;100.00
6680;BME280;3376;42.664;23.346;2022-07-10T02:57:45;94394.63;;;16.34;100.00
6680;BME280;3376;42.664;23.346;2022-07-10T03:00:12;94404.59;;;16.51;100.00
6680;BME280;3376;42.664;23.346;2022-07-10T03:02:41;94372.00;;;16.22;100.00
6680;BME280;3376;42.664;23.346;2022-07-10T03:05:08;94394.13;;;16.44;100.00
6680;BME280;3376;42.664;23.346;2022-07-10T03:07:35;94403.34;;;16.53;100.00
6680;BME280;3376;42.664;23.346;2022-07-10T03:10:02;94410.81;;;16.50;100.00
6680;BME280;3376;42.664;23.346;2022-07-10T03:12:29;94412.44;;;16.51;100.00
6680;BME280;3376;42.664;23.346;2022-07-10T03:14:56;94410.16;;;16.54;100.00
6680;BME280;3376;42.664;23.346;2022-07-10T03:17:24;94397.84;;;16.36;100.00
6680;BME280;3376;42.664;23.346;2022-07-10T03:19:53;94420.81;;;16.59;100.00
6680;BME280;3376;42.664;23.346;2022-07-10T03:22:21;94428.81;;;16.64;100.00
6680;BME280;3376;42.664;23.346;2022-07-10T03:24:48;94429.38;;;16.66;100.00
6680;BME280;3376;42.664;23.346;2022-07-10T03:27:15;94423.91;;;16.74;100.00
6680;BME280;3376;42.664;23.346;2022-07-10T03:29:41;94421.06;;;16.76;100.00
6680;BME280;3376;42.664;23.346;2022-07-10T03:32:08;94296.47;;;15.89;100.00
6680;BME280;3376;42.664;23.346;2022-07-10T03:34:35;94422.28;;;16.73;100.00
6680;BME280;3376;42.664;23.346;2022-07-10T03:37:04;94428.25;;;16.80;100.00
6680;BME280;3376;42.664;23.346;2022-07-10T03:39:32;94418.22;;;16.77;100.00
6680;BME280;3376;42.664;23.346;2022-07-10T03:41:58;94422.81;;;16.82;100.00
6680;BME280;3376;42.664;23.346;2022-07-10T03:44:25;94419.56;;;16.86;100.00
6680;BME280;3376;42.664;23.346;2022-07-10T03:46:52;94421.59;;;16.84;100.00
6680;BME280;3376;42.664;23.346;2022-07-10T03:49:19;94419.25;;;16.76;100.00
6680;BME280;3376;42.664;23.346;2022-07-10T03:51:46;94395.75;;;16.70;100.00
6680;BME280;3376;42.664;23.346;2022-07-10T03:54:14;94401.34;;;16.73;100.00
6680;BME280;3376;42.664;23.346;2022-07-10T03:56:41;94398.19;;;16.71;100.00
6680;BME280;3376;42.664;23.346;2022-07-10T03:59:25;94277.28;;;16.02;100.00
6680;BME280;3376;42.664;23.346;2022-07-10T04:01:52;94408.66;;;16.89;100.00
6680;BME280;3376;42.664;23.346;2022-07-10T04:04:20;94405.16;;;16.95;100.00
6680;BME280;3376;42.664;23.346;2022-07-10T04:06:47;94387.13;;;16.87;100.00
6680;BME280;3376;42.664;23.346;2022-07-10T04:09:15;94407.06;;;17.06;100.00
6680;BME280;3376;42.664;23.346;2022-07-10T04:11:42;94386.28;;;16.93;100.00
6680;BME280;3376;42.664;23.346;2022-07-10T04:14:09;94393.03;;;17.01;100.00
6680;BME280;3376;42.664;23.346;2022-07-10T04:16:36;94324.59;;;16.61;100.00
6680;BME280;3376;42.664;23.346;2022-07-10T04:19:03;94401.97;;;17.11;100.00
6680;BME280;3376;42.664;23.346;2022-07-10T04:21:30;94402.13;;;17.16;100.00
6680;BME280;3376;42.664;23.346;2022-07-10T04:23:56;94394.56;;;17.26;100.00
6680;BME280;3376;42.664;23.346;2022-07-10T04:26:25;94392.28;;;17.30;100.00
6680;BME280;3376;42.664;23.346;2022-07-10T04:28:52;94383.50;;;17.42;100.00
6680;BME280;3376;42.664;23.346;2022-07-10T04:31:18;94392.56;;;17.46;100.00
6680;BME280;3376;42.664;23.346;2022-07-10T04:33:45;94400.19;;;17.48;100.00
6680;BME280;3376;42.664;23.346;2022-07-10T04:36:12;94392.81;;;17.56;100.00
6680;BME280;3376;42.664;23.346;2022-07-10T04:38:39;94392.94;;;17.62;100.00
6680;BME280;3376;42.664;23.346;2022-07-10T04:41:06;94397.78;;;17.76;100.00
6680;BME280;3376;42.664;23.346;2022-07-10T04:43:34;94394.78;;;17.91;100.00
6680;BME280;3376;42.664;23.346;2022-07-10T04:46:01;94365.91;;;17.79;100.00
6680;BME280;3376;42.664;23.346;2022-07-10T04:48:28;94367.72;;;17.79;100.00
6680;BME280;3376;42.664;23.346;2022-07-10T04:50:55;94396.50;;;17.97;100.00
6680;BME280;3376;42.664;23.346;2022-07-10T04:53:23;94383.38;;;17.97;100.00
6680;BME280;3376;42.664;23.346;2022-07-10T04:55:50;94400.78;;;18.21;100.00
6680;BME280;3376;42.664;23.346;2022-07-10T04:58:17;94382.13;;;18.29;100.00
6680;BME280;3376;42.664;23.346;2022-07-10T05:00:45;94342.97;;;18.16;100.00
6680;BME280;3376;42.664;23.346;2022-07-10T05:03:12;94396.09;;;18.64;100.00
6680;BME280;3376;42.664;23.346;2022-07-10T05:05:41;94378.16;;;18.49;100.00
6680;BME280;3376;42.664;23.346;2022-07-10T05:08:08;94394.13;;;18.48;100.00
6680;BME280;3376;42.664;23.346;2022-07-10T05:10:35;94402.72;;;18.66;100.00
6680;BME280;3376;42.664;23.346;2022-07-10T05:13:02;94368.56;;;18.55;100.00
6680;BME280;3376;42.664;23.346;2022-07-10T05:15:29;94398.34;;;18.72;100.00
6680;BME280;3376;42.664;23.346;2022-07-10T05:17:57;94402.72;;;18.66;100.00
6680;BME280;3376;42.664;23.346;2022-07-10T05:20:24;94387.84;;;18.72;100.00
6680;BME280;3376;42.664;23.346;2022-07-10T05:22:51;94397.34;;;18.73;100.00
6680;BME280;3376;42.664;23.346;2022-07-10T05:25:18;94394.94;;;18.83;100.00
6680;BME280;3376;42.664;23.346;2022-07-10T05:27:45;94391.28;;;18.84;100.00
6680;BME280;3376;42.664;23.346;2022-07-10T05:30:12;94389.25;;;18.63;100.00
6680;BME280;3376;42.664;23.346;2022-07-10T05:32:42;94364.47;;;18.59;100.00
6680;BME280;3376;42.664;23.346;2022-07-10T05:35:11;94388.66;;;18.84;100.00
6680;BME280;3376;42.664;23.346;2022-07-10T05:37:38;94381.34;;;18.98;100.00
6680;BME280;3376;42.664;23.346;2022-07-10T05:40:06;94383.28;;;19.02;100.00
6680;BME280;3376;42.664;23.346;2022-07-10T05:42:34;94394.22;;;19.22;100.00
6680;BME280;3376;42.664;23.346;2022-07-10T05:45:01;94383.38;;;19.30;100.00
6680;BME280;3376;42.664;23.346;2022-07-10T05:47:27;94335.47;;;19.00;100.00
6680;BME280;3376;42.664;23.346;2022-07-10T05:49:54;94400.97;;;19.41;100.00
6680;BME280;3376;42.664;23.346;2022-07-10T05:52:23;94394.84;;;19.52;100.00
6680;BME280;3376;42.664;23.346;2022-07-10T05:54:50;94413.81;;;19.54;100.00
6680;BME280;3376;42.664;23.346;2022-07-10T05:57:17;94376.41;;;19.36;100.00
6680;BME280;3376;42.664;23.346;2022-07-10T05:59:44;94361.53;;;19.41;100.00
6680;BME280;3376;42.664;23.346;2022-07-10T06:02:10;94399.00;;;19.76;97.25
6680;BME280;3376;42.664;23.346;2022-07-10T06:04:37;94411.41;;;19.92;96.12
6680;BME280;3376;42.664;23.346;2022-07-10T06:07:04;94358.31;;;19.79;95.63
6680;BME280;3376;42.664;23.346;2022-07-10T06:09:32;94420.59;;;20.18;94.72
6680;BME280;3376;42.664;23.346;2022-07-10T06:11:59;94409.25;;;20.18;93.65
6680;BME280;3376;42.664;23.346;2022-07-10T06:14:26;94416.63;;;20.32;93.35
6680;BME280;3376;42.664;23.346;2022-07-10T06:16:53;94387.31;;;20.12;92.33
6680;BME280;3376;42.664;23.346;2022-07-10T06:19:20;94404.41;;;20.26;93.02
6680;BME280;3376;42.664;23.346;2022-07-10T06:21:47;94405.94;;;20.39;91.61
6680;BME280;3376;42.664;23.346;2022-07-10T06:24:35;94402.22;;;20.51;91.96
6680;BME280;3376;42.664;23.346;2022-07-10T06:27:03;94392.25;;;20.53;91.71
6680;BME280;3376;42.664;23.346;2022-07-10T06:29:30;94374.03;;;20.68;91.32
6680;BME280;3376;42.664;23.346;2022-07-10T06:31:56;94394.34;;;20.89;91.52
6680;BME280;3376;42.664;23.346;2022-07-10T06:34:23;94365.41;;;20.73;90.61
6680;BME280;3376;42.664;23.346;2022-07-10T06:36:50;94400.44;;;20.90;89.90
6680;BME280;3376;42.664;23.346;2022-07-10T06:39:17;94377.06;;;20.77;88.02
6680;BME280;3376;42.664;23.346;2022-07-10T06:41:46;94394.13;;;20.91;88.18
6680;BME280;3376;42.664;23.346;2022-07-10T06:44:12;94386.78;;;21.10;88.77
6680;BME280;3376;42.664;23.346;2022-07-10T06:46:39;94402.97;;;21.18;86.55
6680;BME280;3376;42.664;23.346;2022-07-10T06:49:06;94390.00;;;21.33;85.36
6680;BME280;3376;42.664;23.346;2022-07-10T06:51:34;94378.34;;;21.29;85.28
6680;BME280;3376;42.664;23.346;2022-07-10T06:54:03;94364.53;;;21.22;83.83
6680;BME280;3376;42.664;23.346;2022-07-10T06:56:30;94394.44;;;21.49;83.82
6680;BME280;3376;42.664;23.346;2022-07-10T06:58:58;94390.28;;;21.58;83.85
6680;BME280;3376;42.664;23.346;2022-07-10T07:01:25;94388.28;;;21.65;84.08
6680;BME280;3376;42.664;23.346;2022-07-10T07:03:51;94374.06;;;21.66;81.45
6680;BME280;3376;42.664;23.346;2022-07-10T07:06:18;94383.28;;;21.85;80.82
6680;BME280;3376;42.664;23.346;2022-07-10T07:08:45;94374.69;;;22.00;81.06
6680;BME280;3376;42.664;23.346;2022-07-10T07:11:12;94394.06;;;22.10;80.67
6680;BME280;3376;42.664;23.346;2022-07-10T07:13:39;94395.66;;;22.11;81.60
6680;BME280;3376;42.664;23.346;2022-07-10T07:16:07;94389.19;;;22.24;80.07
6680;BME280;3376;42.664;23.346;2022-07-10T07:18:35;94382.03;;;22.20;78.68
6680;BME280;3376;42.664;23.346;2022-07-10T07:21:12;94399.03;;;22.34;79.46
6680;BME280;3376;42.664;23.346;2022-07-10T07:23:56;94398.59;;;22.42;79.29
6680;BME280;3376;42.664;23.346;2022-07-10T07:26:23;94373.44;;;22.34;78.52
6680;BME280;3376;42.664;23.346;2022-07-10T07:28:50;94398.88;;;22.45;79.15
6680;BME280;3376;42.664;23.346;2022-07-10T07:31:18;94276.50;;;21.66;78.42
6680;BME280;3376;42.664;23.346;2022-07-10T07:33:45;94393.38;;;22.52;78.47
6680;BME280;3376;42.664;23.346;2022-07-10T07:36:12;94381.19;;;22.46;79.08
6680;BME280;3376;42.664;23.346;2022-07-10T07:38:39;94397.19;;;22.61;79.54
6680;BME280;3376;42.664;23.346;2022-07-10T07:41:06;94397.56;;;22.74;79.08
6680;BME280;3376;42.664;23.346;2022-07-10T07:43:34;94393.59;;;22.77;79.46
6680;BME280;3376;42.664;23.346;2022-07-10T07:46:01;94377.88;;;22.97;78.04
6680;BME280;3376;42.664;23.346;2022-07-10T07:48:29;94398.09;;;23.13;76.48
6680;BME280;3376;42.664;23.346;2022-07-10T07:50:56;94391.13;;;23.39;76.20
6680;BME280;3376;42.664;23.346;2022-07-10T07:53:23;94366.00;;;23.36;74.24
6680;BME280;3376;42.664;23.346;2022-07-10T07:55:50;94392.84;;;23.70;73.85
6680;BME280;3376;42.664;23.346;2022-07-10T07:58:17;94384.13;;;23.74;71.81
6680;BME280;3376;42.664;23.346;2022-07-10T08:00:44;94388.38;;;23.80;72.10
6680;BME280;3376;42.664;23.346;2022-07-10T08:03:11;94371.97;;;23.83;73.00
6680;BME280;3376;42.664;23.346;2022-07-10T08:05:39;94370.91;;;23.79;72.72
6680;BME280;3376;42.664;23.346;2022-07-10T08:08:06;94379.19;;;23.98;71.36
6680;BME280;3376;42.664;23.346;2022-07-10T08:10:34;94369.88;;;23.85;69.78
6680;BME280;3376;42.664;23.346;2022-07-10T08:13:01;94375.50;;;24.09;69.81
6680;BME280;3376;42.664;23.346;2022-07-10T08:15:28;94373.94;;;24.18;69.99
6680;BME280;3376;42.664;23.346;2022-07-10T08:17:57;94364.94;;;24.29;68.92
6680;BME280;3376;42.664;23.346;2022-07-10T08:20:25;94371.59;;;24.31;66.84
6680;BME280;3376;42.664;23.346;2022-07-10T08:22:53;94370.50;;;24.22;68.28
6680;BME280;3376;42.664;23.346;2022-07-10T08:25:20;94376.88;;;24.47;68.06
6680;BME280;3376;42.664;23.346;2022-07-10T08:27:47;94374.28;;;24.82;65.08
6680;BME280;3376;42.664;23.346;2022-07-10T08:30:14;94346.66;;;25.03;65.14
6680;BME280;3376;42.664;23.346;2022-07-10T08:32:41;94368.38;;;25.15;64.57
6680;BME280;3376;42.664;23.346;2022-07-10T08:35:09;94368.63;;;25.13;63.45
6680;BME280;3376;42.664;23.346;2022-07-10T08:37:37;94354.09;;;24.96;63.13
6680;BME280;3376;42.664;23.346;2022-07-10T08:40:08;94208.97;;;24.27;61.73
6680;BME280;3376;42.664;23.346;2022-07-10T08:42:36;94379.44;;;25.52;61.89
6680;BME280;3376;42.664;23.346;2022-07-10T08:45:03;94374.63;;;25.64;60.87
6680;BME280;3376;42.664;23.346;2022-07-10T08:47:33;94377.78;;;25.71;60.80
6680;BME280;3376;42.664;23.346;2022-07-10T08:50:01;94377.44;;;25.88;58.76
6680;BME280;3376;42.664;23.346;2022-07-10T08:52:33;94216.31;;;24.76;55.87
6680;BME280;3376;42.664;23.346;2022-07-10T08:55:00;94363.44;;;25.72;55.98
6680;BME280;3376;42.664;23.346;2022-07-10T08:57:30;94366.81;;;25.88;56.30
6680;BME280;3376;42.664;23.346;2022-07-10T08:59:58;94313.03;;;25.67;54.68
6680;BME280;3376;42.664;23.346;2022-07-10T09:02:24;94365.41;;;26.10;53.91
6680;BME280;3376;42.664;23.346;2022-07-10T09:04:54;94348.75;;;25.90;53.80
6680;BME280;3376;42.664;23.346;2022-07-10T09:07:21;94362.84;;;25.85;54.46
6680;BME280;3376;42.664;23.346;2022-07-10T09:09:52;94358.69;;;25.69;54.56
6680;BME280;3376;42.664;23.346;2022-07-10T09:12:21;94361.34;;;25.69;54.75
6680;BME280;3376;42.664;23.346;2022-07-10T09:14:52;94354.34;;;25.83;54.38
6680;BME280;3376;42.664;23.346;2022-07-10T09:17:19;94364.94;;;25.93;55.54
6680;BME280;3376;42.664;23.346;2022-07-10T09:19:46;94368.53;;;26.12;55.90
6680;BME280;3376;42.664;23.346;2022-07-10T09:22:13;94357.78;;;26.37;55.32
6680;BME280;3376;42.664;23.346;2022-07-10T09:24:42;94354.50;;;26.45;53.13
6680;BME280;3376;42.664;23.346;2022-07-10T09:27:11;94346.41;;;26.60;53.66
6680;BME280;3376;42.664;23.346;2022-07-10T09:29:46;94346.34;;;26.76;55.25
6680;BME280;3376;42.664;23.346;2022-07-10T09:32:15;94353.66;;;26.89;54.49
6680;BME280;3376;42.664;23.346;2022-07-10T09:34:43;94238.94;;;26.14;53.48
6680;BME280;3376;42.664;23.346;2022-07-10T09:37:21;94313.06;;;26.78;52.39
6680;BME280;3376;42.664;23.346;2022-07-10T09:39:52;94344.38;;;27.15;52.37
6680;BME280;3376;42.664;23.346;2022-07-10T09:42:27;94351.44;;;27.24;51.28
6680;BME280;3376;42.664;23.346;2022-07-10T09:45:13;94342.53;;;27.10;51.73
6680;BME280;3376;42.664;23.346;2022-07-10T09:47:43;94343.69;;;26.76;52.85
6680;BME280;3376;42.664;23.346;2022-07-10T09:50:21;94349.06;;;26.60;52.49
6680;BME280;3376;42.664;23.346;2022-07-10T09:52:49;94340.63;;;26.58;54.74
6680;BME280;3376;42.664;23.346;2022-07-10T09:55:20;94340.59;;;26.25;56.18
6680;BME280;3376;42.664;23.346;2022-07-10T09:57:54;94325.94;;;26.32;54.68
6680;BME280;3376;42.664;23.346;2022-07-10T10:00:26;94335.75;;;26.65;54.28
6680;BME280;3376;42.664;23.346;2022-07-10T10:02:59;94326.56;;;26.53;51.13
6680;BME280;3376;42.664;23.346;2022-07-10T10:05:33;94332.38;;;26.89;52.81
6680;BME280;3376;42.664;23.346;2022-07-10T10:08:06;94340.72;;;27.06;51.09
6680;BME280;3376;42.664;23.346;2022-07-10T10:10:36;94305.84;;;27.07;49.78
6680;BME280;3376;42.664;23.346;2022-07-10T10:13:07;94305.75;;;27.41;48.13
6680;BME280;3376;42.664;23.346;2022-07-10T10:15:37;94281.06;;;27.12;47.92
6680;BME280;3376;42.664;23.346;2022-07-10T10:18:06;94321.75;;;27.12;51.38
6680;BME280;3376;42.664;23.346;2022-07-10T10:20:34;94300.84;;;27.29;50.40
6680;BME280;3376;42.664;23.346;2022-07-10T10:23:04;94319.78;;;27.70;50.01
6680;BME280;3376;42.664;23.346;2022-07-10T10:25:32;94323.59;;;27.83;47.80
6680;BME280;3376;42.664;23.346;2022-07-10T10:28:01;94205.50;;;26.65;46.91
6680;BME280;3376;42.664;23.346;2022-07-10T10:30:30;94321.59;;;27.04;48.81
6680;BME280;3376;42.664;23.346;2022-07-10T10:32:57;94315.81;;;26.68;49.91
6680;BME280;3376;42.664;23.346;2022-07-10T10:35:46;94313.66;;;26.36;50.81
6680;BME280;3376;42.664;23.346;2022-07-10T10:38:13;94318.47;;;26.34;52.50
6680;BME280;3376;42.664;23.346;2022-07-10T10:40:41;94189.56;;;25.36;51.61
6680;BME280;3376;42.664;23.346;2022-07-10T10:43:18;94321.03;;;26.11;51.99
6680;BME280;3376;42.664;23.346;2022-07-10T10:45:45;94309.06;;;26.13;52.96
6680;BME280;3376;42.664;23.346;2022-07-10T10:48:13;94314.03;;;26.25;53.14
6680;BME280;3376;42.664;23.346;2022-07-10T10:50:41;94315.75;;;26.01;53.05
6680;BME280;3376;42.664;23.346;2022-07-10T10:53:15;94313.94;;;25.96;52.44
6680;BME280;3376;42.664;23.346;2022-07-10T10:58:43;94299.81;;;25.62;52.86
6680;BME280;3376;42.664;23.346;2022-07-10T11:01:25;94284.78;;;25.32;53.92
6680;BME280;3376;42.664;23.346;2022-07-10T11:04:13;94284.03;;;25.22;56.04
6680;BME280;3376;42.664;23.346;2022-07-10T11:06:41;94300.88;;;25.56;56.45
6680;BME280;3376;42.664;23.346;2022-07-10T11:09:24;94306.81;;;25.87;54.93
6680;BME280;3376;42.664;23.346;2022-07-10T11:12:01;94288.53;;;25.80;52.65
6680;BME280;3376;42.664;23.346;2022-07-10T11:14:29;94292.88;;;25.61;53.16
6680;BME280;3376;42.664;23.346;2022-07-10T11:16:56;94295.03;;;25.64;53.60
6680;BME280;3376;42.664;23.346;2022-07-10T11:19:25;94297.63;;;25.74;53.36
6680;BME280;3376;42.664;23.346;2022-07-10T11:22:01;94292.25;;;25.84;49.85
6680;BME280;3376;42.664;23.346;2022-07-10T11:24:40;94269.41;;;25.83;50.23
6680;BME280;3376;42.664;23.346;2022-07-10T11:27:28;94277.16;;;26.18;50.77
6680;BME280;3376;42.664;23.346;2022-07-10T11:29:59;94272.88;;;26.22;50.83
6680;BME280;3376;42.664;23.346;2022-07-10T11:32:26;94289.34;;;26.19;51.03
6680;BME280;3376;42.664;23.346;2022-07-10T11:34:54;94292.44;;;26.31;51.24
6680;BME280;3376;42.664;23.346;2022-07-10T11:37:21;94300.13;;;26.33;51.14
6680;BME280;3376;42.664;23.346;2022-07-10T11:39:52;94296.78;;;26.22;53.21
6680;BME280;3376;42.664;23.346;2022-07-10T11:42:47;94295.50;;;25.71;54.78
6680;BME280;3376;42.664;23.346;2022-07-10T11:45:25;94148.53;;;24.70;53.77
6680;BME280;3376;42.664;23.346;2022-07-10T11:47:52;94306.94;;;25.67;54.03
6680;BME280;3376;42.664;23.346;2022-07-10T11:50:19;94295.00;;;25.69;52.67
6680;BME280;3376;42.664;23.346;2022-07-10T11:52:46;94295.50;;;25.66;53.04
6680;BME280;3376;42.664;23.346;2022-07-10T11:55:16;94302.22;;;25.97;52.77
6680;BME280;3376;42.664;23.346;2022-07-10T11:57:43;94310.78;;;25.89;53.09
6680;BME280;3376;42.664;23.346;2022-07-10T12:00:21;94268.97;;;25.71;51.40
6680;BME280;3376;42.664;23.346;2022-07-10T12:02:49;94294.31;;;25.92;51.21
6680;BME280;3376;42.664;23.346;2022-07-10T12:05:33;94286.63;;;25.91;51.08
6680;BME280;3376;42.664;23.346;2022-07-10T12:08:00;94293.22;;;25.98;50.87
6680;BME280;3376;42.664;23.346;2022-07-10T12:10:30;94242.41;;;25.76;50.87
6680;BME280;3376;42.664;23.346;2022-07-10T12:13:04;94282.16;;;25.86;50.66
6680;BME280;3376;42.664;23.346;2022-07-10T12:15:33;94281.13;;;25.77;51.04
6680;BME280;3376;42.664;23.346;2022-07-10T12:17:59;94298.81;;;25.92;50.94
6680;BME280;3376;42.664;23.346;2022-07-10T12:20:26;94286.75;;;25.71;51.15
6680;BME280;3376;42.664;23.346;2022-07-10T12:22:53;94301.31;;;25.73;51.88
6680;BME280;3376;42.664;23.346;2022-07-10T12:25:22;94281.75;;;25.64;51.78
6680;BME280;3376;42.664;23.346;2022-07-10T12:27:55;94224.09;;;25.21;50.72
6680;BME280;3376;42.664;23.346;2022-07-10T12:30:22;94298.81;;;25.43;51.47
6680;BME280;3376;42.664;23.346;2022-07-10T12:32:49;94290.88;;;25.43;51.34
6680;BME280;3376;42.664;23.346;2022-07-10T12:35:16;94285.06;;;25.36;50.58
6680;BME280;3376;42.664;23.346;2022-07-10T12:37:48;94280.22;;;25.48;50.67
6680;BME280;3376;42.664;23.346;2022-07-10T12:40:30;94295.63;;;25.46;50.14
6680;BME280;3376;42.664;23.346;2022-07-10T12:43:04;94255.97;;;25.11;51.07
6680;BME280;3376;42.664;23.346;2022-07-10T12:45:32;94293.53;;;25.33;50.28
6680;BME280;3376;42.664;23.346;2022-07-10T12:47:59;94297.84;;;25.14;50.96
6680;BME280;3376;42.664;23.346;2022-07-10T12:50:29;94300.53;;;25.09;50.75
6680;BME280;3376;42.664;23.346;2022-07-10T12:53:09;94295.97;;;25.19;50.28
6680;BME280;3376;42.664;23.346;2022-07-10T12:55:37;94291.69;;;25.23;49.83
6680;BME280;3376;42.664;23.346;2022-07-10T12:58:08;94288.31;;;25.18;49.41
6680;BME280;3376;42.664;23.346;2022-07-10T13:00:43;94281.72;;;25.05;47.34
6680;BME280;3376;42.664;23.346;2022-07-10T13:03:12;94293.25;;;25.34;47.68
6680;BME280;3376;42.664;23.346;2022-07-10T13:05:43;94299.66;;;25.38;47.31
6680;BME280;3376;42.664;23.346;2022-07-10T13:08:12;94283.94;;;25.52;46.09
6680;BME280;3376;42.664;23.346;2022-07-10T13:10:42;94292.38;;;25.54;45.96
6680;BME280;3376;42.664;23.346;2022-07-10T13:13:11;94290.84;;;25.48;45.18
6680;BME280;3376;42.664;23.346;2022-07-10T13:15:38;94296.41;;;25.51;44.62